createdAt,value
2023-02-28T00:00:00.016Z,0.3
2023-02-28T00:00:59.567Z,0.3
2023-02-28T00:02:00.245Z,0.3
2023-02-28T00:02:59.844Z,0.3
2023-02-28T00:04:00.347Z,0.3
2023-02-28T00:04:59.944Z,0.3
2023-02-28T00:05:59.556Z,0.2
2023-02-28T00:07:00.102Z,0.2
2023-02-28T00:07:59.712Z,0.2
2023-02-28T00:09:00.302Z,0.2
2023-02-28T00:09:59.904Z,0.2
2023-02-28T00:11:00.500Z,0.1
2023-02-28T00:12:00.114Z,0.1
2023-02-28T00:12:59.712Z,0.1
2023-02-28T00:14:00.296Z,0.1
2023-02-28T00:14:59.931Z,0.1
2023-02-28T00:16:00.477Z,0
2023-02-28T00:17:00.097Z,0
2023-02-28T00:17:59.716Z,0
2023-02-28T00:19:00.286Z,0
2023-02-28T00:19:59.910Z,0
2023-02-28T00:21:00.468Z,0
2023-02-28T00:22:00.093Z,0
2023-02-28T00:22:59.710Z,0
2023-02-28T00:24:00.257Z,0
2023-02-28T00:24:59.847Z,0
2023-02-28T00:26:00.422Z,0
2023-02-28T00:27:00.032Z,0
2023-02-28T00:27:59.604Z,0
2023-02-28T00:29:00.157Z,0
2023-02-28T00:29:59.740Z,0
2023-02-28T00:31:00.364Z,0
2023-02-28T00:32:00.052Z,0
2023-02-28T00:32:59.559Z,0
2023-02-28T00:34:00.153Z,0
2023-02-28T00:34:59.742Z,-0.1
2023-02-28T00:36:00.353Z,-0.1
2023-02-28T00:36:59.953Z,-0.1
2023-02-28T00:37:59.535Z,-0.1
2023-02-28T00:39:00.154Z,-0.2
2023-02-28T00:39:59.758Z,-0.1
2023-02-28T00:41:00.332Z,-0.1
2023-02-28T00:41:59.922Z,-0.1
2023-02-28T00:42:59.510Z,-0.1
2023-02-28T00:44:00.116Z,-0.1
2023-02-28T00:44:59.710Z,0
2023-02-28T00:46:00.298Z,0
2023-02-28T00:46:59.922Z,-0.1
2023-02-28T00:48:00.468Z,-0.2
2023-02-28T00:49:00.213Z,-0.2
2023-02-28T00:49:59.738Z,-0.2
2023-02-28T00:51:00.305Z,-0.4
2023-02-28T00:51:59.897Z,-0.4
2023-02-28T00:53:00.483Z,-0.4
2023-02-28T00:54:00.101Z,-0.3
2023-02-28T00:54:59.719Z,-0.3
2023-02-28T00:56:00.274Z,-0.3
2023-02-28T00:56:59.967Z,-0.3
2023-02-28T00:58:00.449Z,-0.2
2023-02-28T00:59:00.058Z,-0.3
2023-02-28T00:59:59.684Z,-0.3
2023-02-28T01:01:00.241Z,-0.4
2023-02-28T01:01:59.878Z,-0.4
2023-02-28T01:03:00.446Z,-0.4
2023-02-28T01:04:00.052Z,-0.4
2023-02-28T01:04:59.658Z,-0.4
2023-02-28T01:06:00.235Z,-0.4
2023-02-28T01:06:59.869Z,-0.4
2023-02-28T01:08:00.426Z,-0.4
2023-02-28T01:09:00.019Z,-0.4
2023-02-28T01:09:59.609Z,-0.4
2023-02-28T01:11:00.207Z,-0.4
2023-02-28T01:11:59.840Z,-0.4
2023-02-28T01:13:00.389Z,-0.4
2023-02-28T01:14:00.032Z,-0.5
2023-02-28T01:14:59.626Z,-0.4
2023-02-28T01:16:00.305Z,-0.6
2023-02-28T01:16:59.831Z,-0.6
2023-02-28T01:18:00.449Z,-0.6
2023-02-28T01:19:00.079Z,-0.6
2023-02-28T01:19:59.669Z,-0.6
2023-02-28T01:21:00.248Z,-0.5
2023-02-28T01:21:59.855Z,-0.6
2023-02-28T01:23:00.458Z,-0.5
2023-02-28T01:24:00.081Z,-0.5
2023-02-28T01:24:59.667Z,-0.6
2023-02-28T01:26:00.252Z,-0.7
2023-02-28T01:26:59.843Z,-0.7
2023-02-28T01:28:00.447Z,-0.7
2023-02-28T01:29:00.084Z,-0.7
2023-02-28T01:29:59.673Z,-0.7
2023-02-28T01:31:00.282Z,-0.7
2023-02-28T01:31:59.919Z,-0.7
2023-02-28T01:33:00.484Z,-0.7
2023-02-28T01:34:00.138Z,-0.7
2023-02-28T01:34:59.739Z,-0.7
2023-02-28T01:36:00.329Z,-0.7
2023-02-28T01:36:59.951Z,-0.8
2023-02-28T01:38:06.891Z,-0.8
2023-02-28T01:39:00.100Z,-0.7
2023-02-28T01:39:59.730Z,-0.7
2023-02-28T01:41:00.261Z,-0.8
2023-02-28T01:41:59.854Z,-0.9
2023-02-28T01:43:00.438Z,-0.9
2023-02-28T01:44:00.053Z,-1
2023-02-28T01:44:59.682Z,-1
2023-02-28T01:46:00.292Z,-1.1
2023-02-28T01:46:59.890Z,-1.1
2023-02-28T01:48:00.476Z,-1.2
2023-02-28T01:49:00.070Z,-1.2
2023-02-28T01:49:59.685Z,-1.2
2023-02-28T01:51:00.281Z,-1.2
2023-02-28T01:51:59.876Z,-1.2
2023-02-28T01:53:00.452Z,-1.3
2023-02-28T01:54:00.048Z,-1.3
2023-02-28T01:54:59.664Z,-1.3
2023-02-28T01:56:00.226Z,-1.4
2023-02-28T01:56:59.821Z,-1.4
2023-02-28T01:57:59.511Z,-1.4
2023-02-28T01:58:59.990Z,-1.6
2023-02-28T01:59:59.625Z,-1.7
2023-02-28T02:01:00.173Z,-1.7
2023-02-28T02:01:59.821Z,-1.7
2023-02-28T02:03:00.379Z,-1.7
2023-02-28T02:03:59.992Z,-1.8
2023-02-28T02:04:59.563Z,-1.8
2023-02-28T02:06:00.167Z,-1.8
2023-02-28T02:06:59.784Z,-1.9
2023-02-28T02:08:00.346Z,-1.9
2023-02-28T02:08:59.938Z,-1.8
2023-02-28T02:09:59.510Z,-1.8
2023-02-28T02:11:00.100Z,-1.8
2023-02-28T02:11:59.688Z,-1.8
2023-02-28T02:13:00.284Z,-1.8
2023-02-28T02:13:59.870Z,-1.9
2023-02-28T02:15:00.453Z,-2
2023-02-28T02:16:00.080Z,-1.9
2023-02-28T02:16:59.696Z,-2
2023-02-28T02:18:00.300Z,-1.9
2023-02-28T02:18:59.891Z,-1.9
2023-02-28T02:20:00.475Z,-2
2023-02-28T02:21:00.088Z,-2
2023-02-28T02:21:59.702Z,-2
2023-02-28T02:23:00.325Z,-1.9
2023-02-28T02:23:59.908Z,-2.1
2023-02-28T02:24:59.497Z,-2.1
2023-02-28T02:26:00.093Z,-2.1
2023-02-28T02:26:59.697Z,-2
2023-02-28T02:28:00.305Z,-2
2023-02-28T02:28:59.894Z,-2
2023-02-28T02:30:00.468Z,-1.9
2023-02-28T02:31:00.078Z,-1.9
2023-02-28T02:31:59.703Z,-2
2023-02-28T02:33:00.308Z,-1.9
2023-02-28T02:33:59.892Z,-2
2023-02-28T02:35:00.470Z,-2
2023-02-28T02:36:00.114Z,-2
2023-02-28T02:36:59.702Z,-2
2023-02-28T02:38:00.307Z,-2.1
2023-02-28T02:38:59.922Z,-2.2
2023-02-28T02:40:00.481Z,-2.2
2023-02-28T02:41:00.092Z,-2.2
2023-02-28T02:41:59.711Z,-2.2
2023-02-28T02:43:00.300Z,-2
2023-02-28T02:43:59.890Z,-1.9
2023-02-28T02:45:00.472Z,-1.7
2023-02-28T02:46:00.099Z,-1.6
2023-02-28T02:46:59.686Z,-1.5
2023-02-28T02:48:00.296Z,-1.4
2023-02-28T02:48:59.885Z,-1.3
2023-02-28T02:50:00.485Z,-1.4
2023-02-28T02:51:00.107Z,-1.5
2023-02-28T02:51:59.722Z,-1.4
2023-02-28T02:53:00.303Z,-1.4
2023-02-28T02:53:59.902Z,-1.4
2023-02-28T02:54:59.514Z,-1.4
2023-02-28T02:56:00.100Z,-1.5
2023-02-28T02:56:59.712Z,-1.3
2023-02-28T02:58:00.395Z,-1.2
2023-02-28T02:58:59.943Z,-1.2
2023-02-28T02:59:59.526Z,-1.2
2023-02-28T03:01:00.175Z,-1.3
2023-02-28T03:01:59.770Z,-1.2
2023-02-28T03:03:00.371Z,-1.2
2023-02-28T03:03:59.991Z,-1.2
2023-02-28T03:04:59.542Z,-1.2
2023-02-28T03:06:00.164Z,-1.2
2023-02-28T03:06:59.762Z,-1.3
2023-02-28T03:08:00.364Z,-1.3
2023-02-28T03:08:59.957Z,-1.4
2023-02-28T03:09:59.577Z,-1.3
2023-02-28T03:11:00.153Z,-1.3
2023-02-28T03:11:59.743Z,-1.3
2023-02-28T03:13:00.348Z,-1.4
2023-02-28T03:13:59.954Z,-1.4
2023-02-28T03:14:59.514Z,-1.4
2023-02-28T03:16:00.182Z,-1.5
2023-02-28T03:16:59.747Z,-1.4
2023-02-28T03:18:00.346Z,-1.4
2023-02-28T03:18:59.950Z,-1.4
2023-02-28T03:19:59.534Z,-1.3
2023-02-28T03:21:00.119Z,-1.3
2023-02-28T03:21:59.709Z,-1.5
2023-02-28T03:23:00.324Z,-1.6
2023-02-28T03:23:59.922Z,-1.5
2023-02-28T03:24:59.501Z,-1.4
2023-02-28T03:26:00.099Z,-1.3
2023-02-28T03:26:59.715Z,-1.3
2023-02-28T03:28:00.302Z,-1.3
2023-02-28T03:28:59.922Z,-1.3
2023-02-28T03:30:00.485Z,-1.3
2023-02-28T03:31:00.095Z,-1.3
2023-02-28T03:31:59.734Z,-1.2
2023-02-28T03:33:00.272Z,-1.2
2023-02-28T03:33:59.893Z,-1.2
2023-02-28T03:35:00.448Z,-1.2
2023-02-28T03:36:00.134Z,-1.2
2023-02-28T03:36:59.734Z,-1.1
2023-02-28T03:38:00.260Z,-1.2
2023-02-28T03:38:59.872Z,-1.3
2023-02-28T03:40:00.452Z,-1.3
2023-02-28T03:41:00.048Z,-1.3
2023-02-28T03:41:59.635Z,-1.2
2023-02-28T03:43:00.326Z,-1.3
2023-02-28T03:43:59.923Z,-1.3
2023-02-28T03:45:00.459Z,-1.4
2023-02-28T03:46:00.116Z,-1.3
2023-02-28T03:46:59.715Z,-1.4
2023-02-28T03:48:00.301Z,-1.4
2023-02-28T03:48:59.897Z,-1.4
2023-02-28T03:50:00.499Z,-1.4
2023-02-28T03:51:00.118Z,-1.3
2023-02-28T03:51:59.709Z,-1.4
2023-02-28T03:53:00.307Z,-1.4
2023-02-28T03:53:59.905Z,-1.5
2023-02-28T03:54:59.526Z,-1.6
2023-02-28T03:56:00.083Z,-1.6
2023-02-28T03:56:59.702Z,-1.6
2023-02-28T03:58:00.268Z,-1.6
2023-02-28T03:58:59.976Z,-1.6
2023-02-28T04:00:00.455Z,-1.6
2023-02-28T04:01:00.046Z,-1.6
2023-02-28T04:01:59.726Z,-1.6
2023-02-28T04:03:00.209Z,-1.6
2023-02-28T04:03:59.797Z,-1.7
2023-02-28T04:05:00.378Z,-1.6
2023-02-28T04:05:59.974Z,-1.7
2023-02-28T04:06:59.572Z,-1.7
2023-02-28T04:08:00.143Z,-1.7
2023-02-28T04:08:59.731Z,-1.7
2023-02-28T04:10:00.311Z,-1.7
2023-02-28T04:10:59.934Z,-1.7
2023-02-28T04:11:59.487Z,-1.7
2023-02-28T04:13:00.106Z,-1.7
2023-02-28T04:13:59.699Z,-1.7
2023-02-28T04:15:00.303Z,-1.7
2023-02-28T04:15:59.991Z,-1.8
2023-02-28T04:17:00.486Z,-1.8
2023-02-28T04:18:00.105Z,-1.8
2023-02-28T04:18:59.702Z,-1.8
2023-02-28T04:20:00.276Z,-1.7
2023-02-28T04:20:59.882Z,-1.7
2023-02-28T04:22:00.472Z,-1.7
2023-02-28T04:23:00.094Z,-1.7
2023-02-28T04:23:59.675Z,-1.8
2023-02-28T04:25:00.253Z,-1.7
2023-02-28T04:25:59.860Z,-1.7
2023-02-28T04:27:00.474Z,-1.8
2023-02-28T04:28:00.070Z,-1.7
2023-02-28T04:28:59.685Z,-1.7
2023-02-28T04:30:00.320Z,-1.7
2023-02-28T04:30:59.934Z,-1.8
2023-02-28T04:31:59.563Z,-1.8
2023-02-28T04:33:00.074Z,-1.9
2023-02-28T04:33:59.680Z,-1.8
2023-02-28T04:35:00.283Z,-1.8
2023-02-28T04:35:59.895Z,-1.8
2023-02-28T04:37:12.224Z,-1.8
2023-02-28T04:38:00.020Z,-1.8
2023-02-28T04:38:59.616Z,-1.8
2023-02-28T04:40:00.204Z,-1.9
2023-02-28T04:40:59.796Z,-1.9
2023-02-28T04:42:00.402Z,-1.8
2023-02-28T04:43:00.003Z,-1.8
2023-02-28T04:43:59.576Z,-1.9
2023-02-28T04:45:00.173Z,-2
2023-02-28T04:45:59.774Z,-1.9
2023-02-28T04:47:00.400Z,-1.8
2023-02-28T04:47:59.992Z,-1.8
2023-02-28T04:48:59.598Z,-1.9
2023-02-28T04:50:00.222Z,-2
2023-02-28T04:50:59.808Z,-2
2023-02-28T04:52:00.400Z,-1.9
2023-02-28T04:53:00.009Z,-1.9
2023-02-28T04:53:59.593Z,-1.9
2023-02-28T04:55:00.156Z,-1.9
2023-02-28T04:55:59.738Z,-1.9
2023-02-28T04:57:00.326Z,-1.9
2023-02-28T04:57:59.922Z,-2
2023-02-28T04:58:59.513Z,-2
2023-02-28T05:00:00.203Z,-2
2023-02-28T05:00:59.713Z,-2
2023-02-28T05:02:00.316Z,-2
2023-02-28T05:02:59.954Z,-2
2023-02-28T05:03:59.506Z,-2
2023-02-28T05:05:00.132Z,-2
2023-02-28T05:05:59.716Z,-2
2023-02-28T05:07:00.313Z,-2
2023-02-28T05:07:59.898Z,-2
2023-02-28T05:09:00.496Z,-2.1
2023-02-28T05:10:00.085Z,-2
2023-02-28T05:10:59.674Z,-2.1
2023-02-28T05:12:00.260Z,-2.1
2023-02-28T05:12:59.849Z,-2.1
2023-02-28T05:14:00.468Z,-2.2
2023-02-28T05:15:00.115Z,-2.2
2023-02-28T05:15:59.689Z,-2.2
2023-02-28T05:17:00.255Z,-2.1
2023-02-28T05:17:59.847Z,-2.1
2023-02-28T05:19:00.503Z,-2.1
2023-02-28T05:20:09.929Z,-2
2023-02-28T05:20:59.660Z,-2
2023-02-28T05:22:00.243Z,-1.9
2023-02-28T05:22:59.832Z,-2
2023-02-28T05:24:00.423Z,-2
2023-02-28T05:25:00.028Z,-2
2023-02-28T05:25:59.614Z,-2.1
2023-02-28T05:27:00.202Z,-2.1
2023-02-28T05:27:59.793Z,-2.1
2023-02-28T05:29:00.360Z,-2.2
2023-02-28T05:29:59.981Z,-2.2
2023-02-28T05:30:59.537Z,-2.1
2023-02-28T05:32:00.324Z,-2.1
2023-02-28T05:32:59.770Z,-2.2
2023-02-28T05:34:00.348Z,-2.3
2023-02-28T05:34:59.966Z,-2.3
2023-02-28T05:35:59.555Z,-2.2
2023-02-28T05:37:00.117Z,-2.2
2023-02-28T05:37:59.709Z,-2.3
2023-02-28T05:39:00.317Z,-2.3
2023-02-28T05:39:59.905Z,-2.4
2023-02-28T05:40:59.490Z,-2.3
2023-02-28T05:42:00.101Z,-2.2
2023-02-28T05:42:59.689Z,-2.4
2023-02-28T05:44:00.272Z,-2.5
2023-02-28T05:44:59.864Z,-2.5
2023-02-28T05:46:00.491Z,-2.6
2023-02-28T05:47:00.119Z,-2.6
2023-02-28T05:47:59.724Z,-2.7
2023-02-28T05:49:00.328Z,-2.8
2023-02-28T05:49:59.936Z,-2.8
2023-02-28T05:50:59.553Z,-2.9
2023-02-28T05:52:00.120Z,-2.9
2023-02-28T05:52:59.733Z,-2.9
2023-02-28T05:54:00.300Z,-3
2023-02-28T05:55:00.040Z,-3
2023-02-28T05:55:59.479Z,-3
2023-02-28T05:57:00.099Z,-2.9
2023-02-28T05:57:59.714Z,-3
2023-02-28T05:59:00.274Z,-3.1
2023-02-28T05:59:59.916Z,-3.1
2023-02-28T06:01:00.460Z,-3.1
2023-02-28T06:02:00.101Z,-3.2
2023-02-28T06:02:59.753Z,-3.2
2023-02-28T06:04:00.284Z,-3.1
2023-02-28T06:04:59.876Z,-3.1
2023-02-28T06:06:00.451Z,-3.1
2023-02-28T06:07:00.126Z,-3.3
2023-02-28T06:07:59.711Z,-3.3
2023-02-28T06:09:00.276Z,-3.4
2023-02-28T06:09:59.897Z,-3.4
2023-02-28T06:11:00.446Z,-3.4
2023-02-28T06:12:00.057Z,-3.5
2023-02-28T06:12:59.649Z,-3.6
2023-02-28T06:14:00.236Z,-3.7
2023-02-28T06:14:59.860Z,-3.7
2023-02-28T06:16:00.415Z,-3.8
2023-02-28T06:17:00.018Z,-3.7
2023-02-28T06:17:59.659Z,-3.7
2023-02-28T06:19:00.241Z,-3.7
2023-02-28T06:19:59.883Z,-3.6
2023-02-28T06:21:00.424Z,-3.7
2023-02-28T06:22:00.034Z,-3.7
2023-02-28T06:22:59.648Z,-3.7
2023-02-28T06:24:00.205Z,-3.8
2023-02-28T06:24:59.819Z,-3.8
2023-02-28T06:26:00.382Z,-3.8
2023-02-28T06:26:59.975Z,-3.8
2023-02-28T06:27:59.580Z,-3.8
2023-02-28T06:29:00.121Z,-3.8
2023-02-28T06:29:59.715Z,-3.7
2023-02-28T06:31:00.334Z,-3.7
2023-02-28T06:31:59.969Z,-3.7
2023-02-28T06:32:59.543Z,-3.7
2023-02-28T06:34:00.133Z,-3.6
2023-02-28T06:34:59.756Z,-3.6
2023-02-28T06:36:00.376Z,-3.5
2023-02-28T06:36:59.972Z,-3.4
2023-02-28T06:37:59.559Z,-3.4
2023-02-28T06:39:00.163Z,-3.5
2023-02-28T06:39:59.773Z,-3.4
2023-02-28T06:41:00.330Z,-3.4
2023-02-28T06:41:59.916Z,-3.4
2023-02-28T06:42:59.504Z,-3.4
2023-02-28T06:44:00.115Z,-3.4
2023-02-28T06:44:59.721Z,-3.4
2023-02-28T06:46:00.348Z,-3.4
2023-02-28T06:46:59.933Z,-3.5
2023-02-28T06:47:59.521Z,-3.6
2023-02-28T06:49:00.104Z,-3.6
2023-02-28T06:49:59.695Z,-3.6
2023-02-28T06:51:00.298Z,-3.5
2023-02-28T06:51:59.887Z,-3.5
2023-02-28T06:53:00.479Z,-3.5
2023-02-28T06:54:00.084Z,-3.5
2023-02-28T06:54:59.734Z,-3.6
2023-02-28T06:56:00.268Z,-3.6
2023-02-28T06:56:59.866Z,-3.5
2023-02-28T06:58:00.463Z,-3.4
2023-02-28T06:59:00.071Z,-3.5
2023-02-28T06:59:59.704Z,-3.5
2023-02-28T07:01:00.317Z,-3.3
2023-02-28T07:01:59.956Z,-3.2
2023-02-28T07:02:59.493Z,-3.2
2023-02-28T07:04:00.101Z,-3.2
2023-02-28T07:04:59.822Z,-3.2
2023-02-28T07:06:00.279Z,-3.2
2023-02-28T07:06:59.862Z,-3.1
2023-02-28T07:08:00.437Z,-3
2023-02-28T07:09:00.045Z,-2.9
2023-02-28T07:09:59.638Z,-2.9
2023-02-28T07:11:00.248Z,-2.8
2023-02-28T07:11:59.855Z,-2.7
2023-02-28T07:13:00.424Z,-2.7
2023-02-28T07:14:00.044Z,-2.7
2023-02-28T07:14:59.632Z,-2.6
2023-02-28T07:16:00.277Z,-2.6
2023-02-28T07:16:59.887Z,-2.6
2023-02-28T07:18:00.462Z,-2.5
2023-02-28T07:19:00.110Z,-2.6
2023-02-28T07:19:59.733Z,-2.5
2023-02-28T07:21:00.272Z,-2.5
2023-02-28T07:21:59.878Z,-2.5
2023-02-28T07:23:00.448Z,-2.4
2023-02-28T07:24:00.091Z,-2.3
2023-02-28T07:24:59.696Z,-2.3
2023-02-28T07:26:00.265Z,-2.2
2023-02-28T07:26:59.882Z,-2.1
2023-02-28T07:28:00.444Z,-2.1
2023-02-28T07:29:00.072Z,-2.1
2023-02-28T07:29:59.659Z,-2
2023-02-28T07:31:00.269Z,-1.9
2023-02-28T07:31:59.910Z,-1.8
2023-02-28T07:33:00.471Z,-1.9
2023-02-28T07:34:00.096Z,-1.8
2023-02-28T07:34:59.699Z,-1.8
2023-02-28T07:36:00.333Z,-1.7
2023-02-28T07:36:59.942Z,-1.7
2023-02-28T07:37:59.517Z,-1.7
2023-02-28T07:39:00.103Z,-1.6
2023-02-28T07:39:59.696Z,-1.5
2023-02-28T07:41:00.299Z,-1.5
2023-02-28T07:41:59.913Z,-1.5
2023-02-28T07:43:00.490Z,-1.5
2023-02-28T07:44:00.108Z,-1.5
2023-02-28T07:44:59.697Z,-1.5
2023-02-28T07:46:00.289Z,-1.5
2023-02-28T07:46:59.936Z,-1.5
2023-02-28T07:48:00.449Z,-1.5
2023-02-28T07:49:00.040Z,-1.5
2023-02-28T07:49:59.648Z,-1.4
2023-02-28T07:51:00.211Z,-1.4
2023-02-28T07:51:59.808Z,-1.4
2023-02-28T07:53:00.480Z,-1.5
2023-02-28T07:54:00.051Z,-1.4
2023-02-28T07:54:59.626Z,-1.3
2023-02-28T07:56:00.190Z,-1.3
2023-02-28T07:56:59.773Z,-1.1
2023-02-28T07:58:00.361Z,-1
2023-02-28T07:58:59.978Z,-1.1
2023-02-28T07:59:59.562Z,-1.1
2023-02-28T08:01:00.172Z,-0.9
2023-02-28T08:01:59.795Z,-0.8
2023-02-28T08:03:00.352Z,-0.7
2023-02-28T08:03:59.961Z,-0.7
2023-02-28T08:04:59.587Z,-0.6
2023-02-28T08:06:00.102Z,-0.6
2023-02-28T08:06:59.703Z,-0.6
2023-02-28T08:08:00.281Z,-0.6
2023-02-28T08:08:59.909Z,-0.5
2023-02-28T08:10:00.454Z,-0.3
2023-02-28T08:11:00.042Z,-0.3
2023-02-28T08:11:59.648Z,-0.3
2023-02-28T08:13:00.215Z,-0.3
2023-02-28T08:13:59.802Z,-0.2
2023-02-28T08:15:00.413Z,-0.2
2023-02-28T08:16:00.047Z,-0.1
2023-02-28T08:16:59.634Z,-0.2
2023-02-28T08:18:00.166Z,-0.2
2023-02-28T08:18:59.769Z,0
2023-02-28T08:20:00.352Z,0
2023-02-28T08:20:59.938Z,0
2023-02-28T08:21:59.548Z,0
2023-02-28T08:23:00.129Z,0.1
2023-02-28T08:23:59.726Z,0.1
2023-02-28T08:25:00.307Z,0.1
2023-02-28T08:25:59.907Z,0.2
2023-02-28T08:26:59.475Z,0.1
2023-02-28T08:28:00.101Z,0
2023-02-28T08:29:01.345Z,0
2023-02-28T08:30:00.095Z,0
2023-02-28T08:30:59.717Z,0
2023-02-28T08:32:00.444Z,0
2023-02-28T08:32:59.979Z,0
2023-02-28T08:33:59.518Z,0
2023-02-28T08:35:00.115Z,0.1
2023-02-28T08:35:59.769Z,0.2
2023-02-28T08:37:00.300Z,0.2
2023-02-28T08:37:59.886Z,0.2
2023-02-28T08:38:59.472Z,0.2
2023-02-28T08:40:00.053Z,0.2
2023-02-28T08:40:59.677Z,0.3
2023-02-28T08:42:07.083Z,0.3
2023-02-28T08:42:59.771Z,0.3
2023-02-28T08:44:00.379Z,0.3
2023-02-28T08:44:59.973Z,0.4
2023-02-28T08:45:59.636Z,0.4
2023-02-28T08:47:00.162Z,0.4
2023-02-28T08:47:59.759Z,0.5
2023-02-28T08:49:00.355Z,0.4
2023-02-28T08:49:59.952Z,0.4
2023-02-28T08:51:07.008Z,0.4
2023-02-28T08:52:00.119Z,0.5
2023-02-28T08:52:59.715Z,0.5
2023-02-28T08:54:00.281Z,0.6
2023-02-28T08:54:59.877Z,0.7
2023-02-28T08:56:00.477Z,0.7
2023-02-28T08:57:00.089Z,0.8
2023-02-28T08:57:59.677Z,0.8
2023-02-28T08:59:00.267Z,0.9
2023-02-28T08:59:59.862Z,0.9
2023-02-28T09:01:00.531Z,0.9
2023-02-28T09:02:00.219Z,0.9
2023-02-28T09:02:59.714Z,0.9
2023-02-28T09:04:00.303Z,0.9
2023-02-28T09:04:59.920Z,0.9
2023-02-28T09:05:59.521Z,1
2023-02-28T09:07:00.106Z,1
2023-02-28T09:07:59.697Z,1
2023-02-28T09:09:00.281Z,1.1
2023-02-28T09:09:59.943Z,1.2
2023-02-28T09:11:01.066Z,1.2
2023-02-28T09:12:00.110Z,1.2
2023-02-28T09:12:59.724Z,1.2
2023-02-28T09:14:00.319Z,1.3
2023-02-28T09:14:59.924Z,1.3
2023-02-28T09:15:59.537Z,1.3
2023-02-28T09:17:00.166Z,1.3
2023-02-28T09:17:59.744Z,1.5
2023-02-28T09:19:00.353Z,1.5
2023-02-28T09:19:59.943Z,1.6
2023-02-28T09:20:59.558Z,1.6
2023-02-28T09:22:00.107Z,1.6
2023-02-28T09:22:59.703Z,1.6
2023-02-28T09:24:00.290Z,1.7
2023-02-28T09:24:59.891Z,1.8
2023-02-28T09:25:59.517Z,1.9
2023-02-28T09:27:04.728Z,1.9
2023-02-28T09:27:59.600Z,1.9
2023-02-28T09:29:00.195Z,2
2023-02-28T09:29:59.797Z,2.1
2023-02-28T09:31:00.420Z,2.1
2023-02-28T09:32:00.070Z,2.1
2023-02-28T09:32:59.596Z,2
2023-02-28T09:34:00.282Z,2.1
2023-02-28T09:34:59.871Z,2.3
2023-02-28T09:36:00.471Z,2.3
2023-02-28T09:37:00.185Z,2.2
2023-02-28T09:37:59.689Z,2
2023-02-28T09:39:00.254Z,2.1
2023-02-28T09:39:59.850Z,2.2
2023-02-28T09:41:00.448Z,2.1
2023-02-28T09:42:00.075Z,2.1
2023-02-28T09:42:59.672Z,2.2
2023-02-28T09:44:00.277Z,2.3
2023-02-28T09:44:59.874Z,2.3
2023-02-28T09:46:00.488Z,2.3
2023-02-28T09:47:00.117Z,2.3
2023-02-28T09:47:59.699Z,2.4
2023-02-28T09:49:00.305Z,2.5
2023-02-28T09:49:59.922Z,2.5
2023-02-28T09:50:59.506Z,2.5
2023-02-28T09:52:00.071Z,2.5
2023-02-28T09:52:59.664Z,2.6
2023-02-28T09:54:02.090Z,2.5
2023-02-28T09:54:59.793Z,2.3
2023-02-28T09:56:00.384Z,2.4
2023-02-28T09:56:59.998Z,2.4
2023-02-28T09:57:59.592Z,2.5
2023-02-28T09:59:00.182Z,2.6
2023-02-28T09:59:59.806Z,2.5
2023-02-28T10:01:00.432Z,2.5
2023-02-28T10:02:00.016Z,2.8
2023-02-28T10:02:59.659Z,2.8
2023-02-28T10:04:00.195Z,2.7
2023-02-28T10:04:59.832Z,2.7
2023-02-28T10:06:00.358Z,2.7
2023-02-28T10:06:59.992Z,2.8
2023-02-28T10:07:59.543Z,2.7
2023-02-28T10:09:00.112Z,2.8
2023-02-28T10:09:59.722Z,2.8
2023-02-28T10:11:00.278Z,3
2023-02-28T10:11:59.869Z,2.9
2023-02-28T10:13:00.452Z,2.9
2023-02-28T10:14:00.044Z,2.9
2023-02-28T10:14:59.659Z,2.9
2023-02-28T10:16:00.279Z,2.9
2023-02-28T10:16:59.865Z,3
2023-02-28T10:18:08.348Z,3.1
2023-02-28T10:18:59.979Z,3.1
2023-02-28T10:19:59.573Z,3.2
2023-02-28T10:21:00.173Z,3.2
2023-02-28T10:21:59.761Z,3.2
2023-02-28T10:23:00.369Z,3.2
2023-02-28T10:23:59.956Z,3.4
2023-02-28T10:24:59.545Z,3.4
2023-02-28T10:26:00.147Z,3.5
2023-02-28T10:26:59.740Z,3.5
2023-02-28T10:28:00.323Z,3.3
2023-02-28T10:28:59.941Z,3.4
2023-02-28T10:29:59.498Z,3.3
2023-02-28T10:31:00.180Z,3.3
2023-02-28T10:31:59.797Z,3.3
2023-02-28T10:33:00.368Z,3.4
2023-02-28T10:33:59.989Z,3.5
2023-02-28T10:34:59.540Z,3.4
2023-02-28T10:36:00.174Z,3.4
2023-02-28T10:36:59.787Z,3.4
2023-02-28T10:38:00.363Z,3.4
2023-02-28T10:39:00.001Z,3.4
2023-02-28T10:39:59.540Z,3.3
2023-02-28T10:41:00.120Z,3.2
2023-02-28T10:41:59.709Z,3.3
2023-02-28T10:43:00.291Z,3.4
2023-02-28T10:43:59.899Z,3.4
2023-02-28T10:44:59.464Z,3.5
2023-02-28T10:46:00.086Z,3.7
2023-02-28T10:46:59.694Z,3.7
2023-02-28T10:48:00.278Z,3.8
2023-02-28T10:48:59.898Z,3.6
2023-02-28T10:50:00.461Z,3.7
2023-02-28T10:51:00.082Z,3.8
2023-02-28T10:51:59.686Z,3.7
2023-02-28T10:53:00.271Z,3.6
2023-02-28T10:54:01.745Z,3.5
2023-02-28T10:55:00.460Z,3.6
2023-02-28T10:56:00.074Z,3.8
2023-02-28T10:56:59.680Z,3.8
2023-02-28T10:58:00.281Z,3.8
2023-02-28T10:58:59.870Z,3.8
2023-02-28T11:00:00.473Z,3.8
2023-02-28T11:01:00.071Z,3.8
2023-02-28T11:01:59.704Z,3.9
2023-02-28T11:03:00.264Z,3.9
2023-02-28T11:03:59.880Z,3.9
2023-02-28T11:05:00.465Z,3.9
2023-02-28T11:06:00.091Z,3.9
2023-02-28T11:06:59.679Z,4.1
2023-02-28T11:08:00.250Z,4.1
2023-02-28T11:08:59.837Z,4
2023-02-28T11:10:00.422Z,4
2023-02-28T11:11:00.082Z,3.9
2023-02-28T11:11:59.672Z,4.2
2023-02-28T11:13:01.112Z,4.3
2023-02-28T11:13:59.804Z,4.4
2023-02-28T11:15:00.395Z,4.4
2023-02-28T11:16:00.081Z,4.4
2023-02-28T11:16:59.660Z,4.4
2023-02-28T11:18:00.209Z,4.4
2023-02-28T11:18:59.793Z,4.6
2023-02-28T11:20:00.377Z,4.5
2023-02-28T11:20:59.962Z,4.2
2023-02-28T11:21:59.574Z,4.1
2023-02-28T11:23:00.137Z,3.9
2023-02-28T11:23:59.721Z,4
2023-02-28T11:25:00.314Z,4.2
2023-02-28T11:25:59.901Z,4.2
2023-02-28T11:26:59.535Z,4.3
2023-02-28T11:28:00.097Z,4.2
2023-02-28T11:28:59.682Z,4.1
2023-02-28T11:30:00.271Z,4
2023-02-28T11:30:59.962Z,4.1
2023-02-28T11:31:59.505Z,4.2
2023-02-28T11:33:00.096Z,4.3
2023-02-28T11:33:59.694Z,4.3
2023-02-28T11:35:00.300Z,4.3
2023-02-28T11:35:59.968Z,4.3
2023-02-28T11:36:59.482Z,4.4
2023-02-28T11:38:00.119Z,4.4
2023-02-28T11:38:59.715Z,4.5
2023-02-28T11:40:00.316Z,4.5
2023-02-28T11:40:59.907Z,4.6
2023-02-28T11:41:59.508Z,4.7
2023-02-28T11:43:00.106Z,4.5
2023-02-28T11:43:59.693Z,4.4
2023-02-28T11:45:00.295Z,4.5
2023-02-28T11:45:59.882Z,4.6
2023-02-28T11:46:59.467Z,4.6
2023-02-28T11:48:00.063Z,4.5
2023-02-28T11:48:59.677Z,4.3
2023-02-28T11:50:00.265Z,4.1
2023-02-28T11:50:59.851Z,4.3
2023-02-28T11:52:00.438Z,4.4
2023-02-28T11:53:00.046Z,4.5
2023-02-28T11:53:59.637Z,4.6
2023-02-28T11:55:00.268Z,4.6
2023-02-28T11:55:59.859Z,4.7
2023-02-28T11:57:00.468Z,4.5
2023-02-28T11:58:00.064Z,4.7
2023-02-28T11:58:59.679Z,4.8
2023-02-28T12:00:00.248Z,4.7
2023-02-28T12:00:59.857Z,4.8
2023-02-28T12:02:00.510Z,4.7
2023-02-28T12:03:00.190Z,4.6
2023-02-28T12:03:59.709Z,4.7
2023-02-28T12:05:00.259Z,4.6
2023-02-28T12:05:59.883Z,4.7
2023-02-28T12:06:59.485Z,4.6
2023-02-28T12:08:00.090Z,4.4
2023-02-28T12:08:59.689Z,4.4
2023-02-28T12:10:00.272Z,4.4
2023-02-28T12:10:59.862Z,4.3
2023-02-28T12:12:00.435Z,4.1
2023-02-28T12:13:00.057Z,4.1
2023-02-28T12:13:59.654Z,4.2
2023-02-28T12:15:00.277Z,4.1
2023-02-28T12:15:59.930Z,4.2
2023-02-28T12:16:59.467Z,4.3
2023-02-28T12:18:00.096Z,4.3
2023-02-28T12:18:59.700Z,4.3
2023-02-28T12:20:00.277Z,4.4
2023-02-28T12:20:59.884Z,4.3
2023-02-28T12:22:00.449Z,4.3
2023-02-28T12:23:00.076Z,4.5
2023-02-28T12:23:59.679Z,4.5
2023-02-28T12:25:00.265Z,4.4
2023-02-28T12:25:59.855Z,4.3
2023-02-28T12:27:00.439Z,4.3
2023-02-28T12:28:00.046Z,4.4
2023-02-28T12:28:59.684Z,4.5
2023-02-28T12:30:00.293Z,4.6
2023-02-28T12:30:59.917Z,4.6
2023-02-28T12:31:59.517Z,4.6
2023-02-28T12:33:00.098Z,4.7
2023-02-28T12:33:59.701Z,4.7
2023-02-28T12:35:00.256Z,4.6
2023-02-28T12:35:59.927Z,4.6
2023-02-28T12:37:00.418Z,4.5
2023-02-28T12:38:00.004Z,4.4
2023-02-28T12:38:59.592Z,4.3
2023-02-28T12:40:00.195Z,4.2
2023-02-28T12:40:59.804Z,4.3
2023-02-28T12:42:00.386Z,4.3
2023-02-28T12:42:59.974Z,4.4
2023-02-28T12:43:59.566Z,4.5
2023-02-28T12:45:00.178Z,4.5
2023-02-28T12:45:59.883Z,4.6
2023-02-28T12:47:00.398Z,4.4
2023-02-28T12:47:59.989Z,4.3
2023-02-28T12:48:59.586Z,4.3
2023-02-28T12:50:00.175Z,4.4
2023-02-28T12:51:00.901Z,4.6
2023-02-28T12:52:00.326Z,4.6
2023-02-28T12:52:59.913Z,4.8
2023-02-28T12:53:59.500Z,4.9
2023-02-28T12:55:00.112Z,4.9
2023-02-28T12:55:59.703Z,4.9
2023-02-28T12:57:00.309Z,4.7
2023-02-28T12:57:59.914Z,4.7
2023-02-28T12:58:59.481Z,4.6
2023-02-28T13:00:00.113Z,4.7
2023-02-28T13:00:59.718Z,4.6
2023-02-28T13:02:00.318Z,4.5
2023-02-28T13:03:00.753Z,4.5
2023-02-28T13:04:00.202Z,4.5
2023-02-28T13:04:59.844Z,4.6
2023-02-28T13:06:00.429Z,4.4
2023-02-28T13:07:00.021Z,4.4
2023-02-28T13:07:59.632Z,4.6
2023-02-28T13:09:00.196Z,4.5
2023-02-28T13:09:59.782Z,4.7
2023-02-28T13:11:02.191Z,4.6
2023-02-28T13:11:59.837Z,4.8
2023-02-28T13:13:00.444Z,4.8
2023-02-28T13:14:00.037Z,4.9
2023-02-28T13:14:59.656Z,5
2023-02-28T13:16:00.223Z,4.8
2023-02-28T13:16:59.867Z,4.9
2023-02-28T13:18:00.429Z,5.1
2023-02-28T13:19:00.045Z,5.1
2023-02-28T13:19:59.666Z,4.9
2023-02-28T13:21:00.231Z,4.7
2023-02-28T13:21:59.821Z,4.8
2023-02-28T13:23:00.407Z,4.8
2023-02-28T13:24:00.007Z,4.8
2023-02-28T13:24:59.621Z,4.8
2023-02-28T13:26:00.170Z,4.8
2023-02-28T13:26:59.764Z,4.9
2023-02-28T13:28:00.352Z,4.9
2023-02-28T13:28:59.940Z,4.9
2023-02-28T13:29:59.546Z,4.8
2023-02-28T13:31:00.132Z,4.9
2023-02-28T13:31:59.742Z,4.8
2023-02-28T13:33:00.311Z,4.9
2023-02-28T13:33:59.907Z,5
2023-02-28T13:34:59.526Z,4.8
2023-02-28T13:36:00.088Z,4.8